Zimmerman, MN (55398)

11:34 PM CDT on September 14, 2014 (GMT -0500)
APRSWXNET Zimmerman MN US | Change Station
CLOSE
Current Station
Personal Weather Station
Location: Zimmerman, MN
Elevation: 997 ft
Nearby Weather Stations

Elev 997 ft 45.45 °N, 93.59 °W | Updated 31 minutes ago

Partly Cloudy
Partly Cloudy
48 °F
Feels Like 48 °F
N
0
Wind Variable Wind from NNW
Gusts 0.0 mph

Today
High -- | Low -- °F
--% Chance of Precip.
Yesterday
High -- | Low -- °F
Precip. -- in
6:51 AM 7:27 PM
Waning Gibbous, 59% visible
Pressure 30.15 in
Visibility 10.0 miles
Clouds Clear
Windchill 48 °F
Dew Point 45 °F
Humidity 91%
Rainfall 0.00 in
Snow Depth Not available.
UV 0 out of 12
Pollen 3.50 out of 12
Ozone Good
PM2.5 Good
Flu Activity Not available.
METAR KPNM 150401Z AUTO 24000KT 10SM CLR 09/08 A3015 RMK AO2

More Conditions Fewer Conditions

Pressure 30.15 in
Visibility 10.0 miles
Clouds Clear
Windchill 48 °F
Dew Point 45 °F
Humidity 91%
Rainfall 0.00 in
Snow Depth Not available.
UV 0 out of 12
Pollen 3.50 out of 12
Ozone Good
PM2.5 Good
Flu Activity Not available.
METAR KPNM 150401Z AUTO 24000KT 10SM CLR 09/08 A3015 RMK AO2

More Conditions Fewer Conditions

10-Day Weather Forecast

Almanac

Astronomy

Sep. 14, 2014 Rise Set
Actual Time 6:51 AM CDT 7:27 PM CDT
Civil Twilight 6:21 AM CDT 7:57 PM CDT
Nautical Twilight 5:46 AM CDT 8:32 PM CDT
Astronomical Twilight 5:09 AM CDT 9:08 PM CDT
Moon 11:03 PM CDT (9/14) 1:14 PM CDT (9/14)
Length of Visible Light 13h 35m
Length of Day
12h 35m
Tomorrow will be 3m 9s shorter.
Waning Gibbous, 59% of the Moon is Illuminated
Sep 15
Waning Gibbous
Sep 15
Last Quarter
Sep 24
New
Oct 1
First Quarter
Oct 8
Full

Yesterday's Extremes

State Highs State Lows

Community

WunderPhotos

Upload Photos

1,753,400 photos uploaded!

Nearby

Air Quality

  Air Quality AQ Index Pollutant
Yesterday Good
PM2.5
Yesterday Good
OZONE
Current Good
PM2.5
Current Good
OZONE
Sunday Good
OZONE
Sunday Good
PM2.5
Monday Good
OZONE
Monday Good
PM2.5
Tuesday Good
OZONE
Tuesday Good
PM2.5
Wednesday Good
PM2.5
Wednesday Good
OZONE
Thursday Moderate
PM2.5
Thursday Good
OZONE
Friday Moderate
PM2.5
Friday Good
OZONE

Snow Depth

Station Depth Elevation
No new snow has been reported.

Earthquake Activity

City Distance Mag. Time & Date
No recent earthquake activity has been reported nearby.
Minimum magnitude displayed is 2.5.

Coastal Water Temperatures

Place Temperature
No Stations Reporting

Nearby Weather Stations